Strona główna
METAR-TAF:

METAR-TAF

Lotnisko :

Port lotniczy Reykjavík

Reykjavík, Islandia

Szerokość geograficzna: 64-08N, Długość geograficzna: 021-54W, wysokość: 54 m

Aktualna obserwacja pogody

Raport powstał 39 minut temu, godzina 07:00 UTC
Wiatr 14 kt od północ
Temperatura 9°C
Wilgotność 71%
Ciśnienie 990 hPa
Widzialność 10 km lub więcej
Mało chmury na wysokości 2500 ft
Przerywane chmury na wysokości 12000 ft

METAR: BIRK 180700Z 35014KT 9999 FEW025 BKN120 09/04 Q0990

czas: 07:39 (07:39 UTC)

Prognoza

Raport powstał 2 godziny i 47 minut temu, godzina 04:52 UTC
Prognoza ważna od 18 godzina 06 UTC do 19 godzina 06 UTC
Wiatr 10 kt od północ
Widzialność 10 km lub więcej
Rozproszone chmury na wysokości 3000 ft
Przerywane chmury na wysokości 5000 ft

TAF: BIRK 180452Z 1806/1906 35010KT 9999 SCT030 BKN050 TX12/1815Z TN07/1903Z

Obserwacja i prognoza pogody dla ponad 4000 lotnisk (raport METAR i TAF).

Dostępne stacje oznaczono żółtymi i czerwonymi punktami na mapie.

Najedź kursorem aby zobaczyć nazwę stacji.

Kliknij aby zobaczyć obserwacje i prognozy pogody.

Aby zmienić mapę: kliknij na zielony przycisk z czarnym krzyżykiem, aby powiększyć; na zielony przycisk z myślnikiem, aby pomniejszyć; na zielone strzałki, aby przejść do map sąsiednich.


METAR-TAF: